KBML/BML METAR and TAF weather

Enter ICAO airport designator
Station Type Date Time Source
KBML METAR 2018/12/12 23:52 UTC NOAA

KBML 122352Z AUTO 16004KT 10SM CLR M16/M19 A3020 RMK AO2 SLP255 T11611189 11067 21161 51030


Station Type Date Time Source
KBML Decoded METAR 2018/12/12 23:52 UTC NOAA

BERLIN MUNICIPAL AIRPORT, NH, United States (KBML) 44-35N 71-11W 345M
Dec 12, 2018 - 06:52 PM EST / 2018.12.12 2352 UTC
Wind: from the SSE (160 degrees) at 5 MPH (4 KT):0
Visibility: 10 mile(s):0
Sky conditions: clear
Temperature: 3.0 F (-16.1 C)
Windchill: -7 F (-22 C):2
Dew Point: -2.0 F (-18.9 C)
Relative Humidity: 78%
Pressure (altimeter): 30.2 in. Hg (1022 hPa)
Pressure tendency: 0.09 inches (3.0 hPa) higher than three hours ago
ob: KBML 122352Z AUTO 16004KT 10SM CLR M16/M19 A3020 RMK AO2 SLP255 T11611189 11067 21161 51030
cycle: 0

Station Type Date Time Source
KBML TAF UTC NOAA

Error!


Example: see airport list